Time;durP1;ratioP1;P1;durP2;ratioP2;P2;SDS_P1;SDS_P2;PMS_P1;PMS_P2;Temp;Humidity;BMP_temperature;BMP_pressure;BME280_temperature;BME280_humidity;BME280_pressure;Samples;Min_cycle;Max_cycle;Signal;HPM_P1;HPM_P2
2022/06/16 00:01:14;;;;;;;4.82;2.58;;;;;;;16.53;55.26;100983.94;4977169;28;20050;-77
2022/06/16 00:03:41;;;;;;;4.57;2.17;;;;;;;16.48;54.84;100975.50;4960965;28;20039;-78
2022/06/16 00:06:13;;;;;;;5.38;3.00;;;;;;;16.43;55.71;100977.63;4966068;28;20058;-76
2022/06/16 00:08:40;;;;;;;7.97;3.45;;;;;;;16.36;56.25;100979.94;4953677;28;20177;-77
2022/06/16 00:11:16;;;;;;;6.85;2.42;;;;;;;16.34;55.92;100970.38;4977336;28;20038;-76
2022/06/16 00:13:44;;;;;;;5.65;2.42;;;;;;;16.30;56.36;100967.16;4974742;28;20058;-76
2022/06/16 00:16:13;;;;;;;5.28;2.38;;;;;;;16.24;57.17;100961.44;4971643;28;20054;-77
2022/06/16 00:18:41;;;;;;;6.05;3.05;;;;;;;16.18;56.95;100968.94;4950767;28;20058;-76
2022/06/16 00:21:08;;;;;;;5.35;2.80;;;;;;;16.14;57.09;100970.13;4940513;28;20050;-76
2022/06/16 00:23:36;;;;;;;7.80;2.55;;;;;;;16.09;57.01;100963.47;4952913;28;20055;-77
2022/06/16 00:26:13;;;;;;;4.88;2.33;;;;;;;16.03;57.25;100966.59;4952055;28;20054;-77
2022/06/16 00:28:41;;;;;;;8.40;2.97;;;;;;;15.95;58.43;100956.56;4937055;28;20054;-76
2022/06/16 00:31:11;;;;;;;9.65;2.92;;;;;;;15.91;57.85;100963.06;4969379;28;20050;-77
2022/06/16 00:33:38;;;;;;;4.65;2.22;;;;;;;15.84;58.00;100959.19;4949448;28;20055;-76
2022/06/16 00:36:06;;;;;;;5.10;2.63;;;;;;;15.80;58.49;100955.06;4965263;28;20062;-76
2022/06/16 00:38:33;;;;;;;6.25;2.63;;;;;;;15.76;59.22;100950.94;4945988;28;20074;-74
2022/06/16 00:41:00;;;;;;;7.20;2.42;;;;;;;15.68;59.28;100949.72;4959744;28;20055;-76
2022/06/16 00:43:28;;;;;;;6.05;2.60;;;;;;;15.64;59.33;100950.91;4931344;28;20074;-76
2022/06/16 00:46:14;;;;;;;6.20;2.60;;;;;;;15.59;59.39;100942.44;4937066;28;20061;-76
2022/06/16 00:48:51;;;;;;;4.85;2.38;;;;;;;15.52;59.50;100949.13;4965229;28;20146;-76
2022/06/16 00:51:37;;;;;;;5.15;2.38;;;;;;;15.47;60.44;100950.44;4957009;28;20062;-77
2022/06/16 00:54:19;;;;;;;6.63;2.58;;;;;;;15.42;60.42;100934.88;4949866;28;20509;-76
2022/06/16 00:56:49;;;;;;;8.13;2.53;;;;;;;15.37;60.83;100937.03;4959825;28;20043;-77
2022/06/16 00:59:16;;;;;;;4.40;2.10;;;;;;;15.31;61.38;100934.81;4949680;28;20509;-77
2022/06/16 01:01:44;;;;;;;5.03;2.15;;;;;;;15.26;61.79;100936.94;4947215;28;20043;-77
2022/06/16 01:06:59;;;;;;;5.55;3.13;;;;;;;15.17;62.01;100941.13;4951792;28;20051;-76
2022/06/16 01:09:31;;;;;;;8.52;3.08;;;;;;;15.13;62.43;100932.56;4943013;28;20043;-77
2022/06/16 01:15:00;;;;;;;4.25;2.20;;;;;;;15.06;63.45;100933.13;4962898;28;20061;-77
2022/06/16 01:18:18;;;;;;;6.18;3.10;;;;;;;14.99;63.90;100931.84;4964823;28;20047;-76
2022/06/16 01:20:51;;;;;;;6.00;2.53;;;;;;;14.90;64.37;100925.41;4890104;29;20166;-77
2022/06/16 01:23:30;;;;;;;5.57;2.42;;;;;;;14.83;65.15;100940.94;4880544;29;20121;-78
2022/06/16 01:26:31;;;;;;;5.47;2.83;;;;;;;14.78;64.82;100937.75;4920052;28;20050;-77
2022/06/16 01:29:33;;;;;;;7.05;2.60;;;;;;;14.73;65.74;100933.75;4966369;28;20053;-77
2022/06/16 01:32:10;;;;;;;3.45;2.35;;;;;;;14.68;65.61;100932.28;4963140;28;20122;-77
2022/06/16 01:34:40;;;;;;;10.25;3.28;;;;;;;14.68;67.76;100929.63;4950480;28;20070;-77
2022/06/16 01:37:14;;;;;;;5.20;2.80;;;;;;;14.64;66.72;100932.59;4962812;28;20119;-77
2022/06/16 01:40:01;;;;;;;5.03;2.70;;;;;;;14.61;66.98;100938.94;4963791;28;20047;-77
2022/06/16 01:42:32;;;;;;;5.20;2.83;;;;;;;14.58;68.38;100938.31;4942660;28;20538;-77
2022/06/16 01:45:14;;;;;;;6.30;3.20;;;;;;;14.53;68.23;100940.44;4950816;28;20051;-77
2022/06/16 01:47:46;;;;;;;5.35;3.08;;;;;;;14.48;69.02;100932.81;4963913;28;20126;-77
2022/06/16 01:50:16;;;;;;;5.30;3.28;;;;;;;14.43;69.91;100930.47;4951495;28;20146;-77
2022/06/16 01:52:48;;;;;;;5.78;3.22;;;;;;;14.42;70.59;100928.78;4953446;28;20061;-77
2022/06/16 01:55:19;;;;;;;5.63;3.60;;;;;;;14.42;70.52;100930.59;4964737;28;20078;-75
2022/06/16 01:57:53;;;;;;;4.03;2.85;;;;;;;14.43;70.46;100932.28;4958422;28;20053;-75
2022/06/16 02:00:23;;;;;;;5.70;3.30;;;;;;;14.40;71.52;100937.78;4951884;28;20050;-74
2022/06/16 02:02:59;;;;;;;7.70;3.33;;;;;;;14.40;71.85;100921.88;4967495;28;20109;-74
2022/06/16 02:05:30;;;;;;;8.27;3.30;;;;;;;14.39;72.22;100918.38;4965400;28;20039;-75
2022/06/16 02:08:06;;;;;;;10.00;3.40;;;;;;;14.37;72.25;100925.63;4953063;28;20154;-75
2022/06/16 02:10:34;;;;;;;;;;;;;;;14.34;72.33;100927.63;4948686;28;20039;-75
2022/06/16 02:13:04;;;;;;;5.97;3.10;;;;;;;14.31;72.15;100922.53;4963637;28;20043;-75
2022/06/16 02:15:54;;;;;;;10.70;4.10;;;;;;;14.30;72.53;100920.84;4956312;28;20051;-75
2022/06/16 02:18:24;;;;;;;11.43;3.60;;;;;;;14.28;72.87;100922.75;4964732;28;20058;-75
2022/06/16 02:21:13;;;;;;;5.30;3.20;;;;;;;14.21;73.76;100921.47;4951332;28;20062;-75
2022/06/16 02:23:41;;;;;;;7.07;3.83;;;;;;;14.16;74.53;100930.59;4963868;28;20069;-75
2022/06/16 02:26:08;;;;;;;6.68;3.35;;;;;;;14.14;73.51;100921.06;4958975;28;20560;-75
2022/06/16 02:28:50;;;;;;;8.02;3.90;;;;;;;14.16;74.69;100930.59;4949674;28;20137;-75
2022/06/16 02:31:51;;;;;;;7.60;3.50;;;;;;;14.17;73.80;100926.13;4954415;28;20051;-76
2022/06/16 02:34:46;;;;;;;6.85;3.40;;;;;;;14.15;73.59;100922.75;4972643;28;20061;-76
2022/06/16 02:37:38;;;;;;;7.40;3.35;;;;;;;14.18;73.99;100910.16;4953258;28;20050;-76
2022/06/16 02:40:43;;;;;;;11.20;4.57;;;;;;;14.18;74.03;100915.47;4970946;28;20046;-76
2022/06/16 02:43:16;;;;;;;4.25;3.08;;;;;;;14.16;74.04;100912.06;4966890;28;20050;-76
2022/06/16 02:46:06;;;;;;;6.00;3.40;;;;;;;14.16;73.92;100919.16;4961932;28;20057;-75
2022/06/16 02:49:02;;;;;;;7.50;3.72;;;;;;;14.12;74.49;100910.56;4972836;28;20076;-76
2022/06/16 02:51:50;;;;;;;6.10;3.03;;;;;;;14.08;74.43;100911.72;4970307;28;20502;-76
2022/06/16 02:54:25;;;;;;;8.20;3.65;;;;;;;14.06;74.84;100913.66;4934237;28;21062;-76
2022/06/16 02:57:06;;;;;;;5.13;3.72;;;;;;;14.03;75.56;100918.31;4967995;28;20051;-75
2022/06/16 02:59:48;;;;;;;5.65;3.25;;;;;;;14.01;75.56;100920.22;4952852;28;20043;-74
2022/06/16 03:02:18;;;;;;;7.25;3.83;;;;;;;13.97;76.10;100916.09;4935565;28;20714;-76
2022/06/16 03:05:00;;;;;;;6.32;3.55;;;;;;;13.93;76.01;100907.50;4953974;28;20055;-75
2022/06/16 03:07:28;;;;;;;7.00;3.80;;;;;;;13.92;76.62;100906.66;4972596;28;20077;-76
2022/06/16 03:09:55;;;;;;;5.38;3.05;;;;;;;13.91;76.11;100907.63;4967204;28;20061;-76
2022/06/16 03:12:22;;;;;;;7.30;3.38;;;;;;;13.93;75.55;100916.28;4953526;28;20046;-76
2022/06/16 03:14:50;;;;;;;6.70;3.42;;;;;;;13.99;75.95;100911.53;4957075;28;20053;-76
2022/06/16 03:17:17;;;;;;;4.88;3.55;;;;;;;13.98;76.68;100913.31;4953410;28;20039;-75
2022/06/16 03:19:45;;;;;;;6.82;3.72;;;;;;;13.97;76.60;100910.78;4968762;28;20158;-76
2022/06/16 03:22:12;;;;;;;7.43;3.83;;;;;;;14.01;76.97;100915.78;4969110;28;20417;-77
2022/06/16 03:24:40;;;;;;;7.32;3.90;;;;;;;14.04;76.83;100910.25;4954562;28;20445;-75
2022/06/16 03:27:08;;;;;;;7.95;3.72;;;;;;;14.07;77.15;100919.78;4951016;28;20057;-76
2022/06/16 03:29:35;;;;;;;4.68;3.53;;;;;;;14.10;76.42;100914.28;4966032;28;20133;-73
2022/06/16 03:32:03;;;;;;;5.07;3.08;;;;;;;14.13;76.27;100912.25;4974868;28;20054;-76
2022/06/16 03:34:30;;;;;;;7.18;3.70;;;;;;;14.17;75.70;100918.19;4951159;28;20072;-76
2022/06/16 03:36:57;;;;;;;5.82;4.20;;;;;;;14.20;76.73;100925.94;4935961;28;20059;-75
2022/06/16 03:39:25;;;;;;;9.50;3.65;;;;;;;14.23;75.96;100914.25;4944464;28;20755;-76
2022/06/16 03:41:52;;;;;;;9.80;3.80;;;;;;;14.25;76.13;100921.16;4968329;28;20054;-76
2022/06/16 03:44:19;;;;;;;8.93;4.22;;;;;;;14.28;75.66;100917.47;4962426;28;20157;-76
2022/06/16 03:46:46;;;;;;;7.65;4.25;;;;;;;14.32;75.58;100924.22;4967146;28;20050;-76
2022/06/16 03:49:14;;;;;;;5.88;3.33;;;;;;;14.36;75.49;100921.28;4967851;28;20042;-76
2022/06/16 03:51:41;;;;;;;8.15;4.40;;;;;;;14.43;75.40;100916.38;4956962;28;20078;-75
2022/06/16 03:54:09;;;;;;;7.28;3.72;;;;;;;14.51;75.08;100918.53;4969089;28;20073;-77
2022/06/16 03:56:36;;;;;;;9.63;3.83;;;;;;;14.58;74.85;100915.31;4954282;28;20065;-75
2022/06/16 03:59:03;;;;;;;6.10;3.80;;;;;;;14.66;74.52;100915.63;4952053;28;20050;-75
2022/06/16 04:01:30;;;;;;;6.57;4.22;;;;;;;14.71;74.24;100920.59;4946271;28;20058;-75
2022/06/16 04:04:01;;;;;;;10.93;4.50;;;;;;;14.75;74.27;100918.56;4974417;28;20058;-76
2022/06/16 04:06:34;;;;;;;5.80;4.03;;;;;;;14.79;74.20;100926.19;4955084;28;20047;-76
2022/06/16 04:09:03;;;;;;;6.65;3.85;;;;;;;14.84;74.14;100909.97;4954603;28;20054;-76
2022/06/16 04:11:31;;;;;;;6.75;3.88;;;;;;;14.91;73.88;100921.84;4941387;28;20051;-77
2022/06/16 04:14:07;;;;;;;7.20;4.10;;;;;;;14.93;73.61;100918.09;4950460;28;20089;-77
2022/06/16 04:16:45;;;;;;;7.53;3.33;;;;;;;14.97;73.00;100908.13;4953376;28;20054;-76
2022/06/16 04:19:14;;;;;;;7.57;3.95;;;;;;;14.97;72.78;100909.94;4964387;28;20045;-77
2022/06/16 04:21:43;;;;;;;6.95;4.13;;;;;;;14.96;73.27;100911.72;4935959;28;20039;-75
2022/06/16 04:24:11;;;;;;;7.95;3.85;;;;;;;14.93;73.15;100917.25;4941232;28;20074;-77
2022/06/16 04:26:39;;;;;;;12.88;4.32;;;;;;;14.98;73.12;100914.25;4956423;28;20478;-77
2022/06/16 04:29:08;;;;;;;8.25;3.55;;;;;;;15.05;72.86;100921.66;4943810;28;20047;-77
2022/06/16 04:31:37;;;;;;;8.15;3.78;;;;;;;15.07;72.71;100927.69;4968630;28;20065;-75
2022/06/16 04:34:04;;;;;;;6.63;3.75;;;;;;;15.07;72.64;100926.84;4957387;28;20051;-77
2022/06/16 04:36:32;;;;;;;8.88;3.92;;;;;;;15.08;72.44;100917.94;4968208;28;20061;-77
2022/06/16 04:39:00;;;;;;;5.20;3.72;;;;;;;15.12;72.44;100922.91;4938190;28;20061;-77
2022/06/16 04:41:27;;;;;;;8.90;3.88;;;;;;;15.17;72.13;100920.78;4951763;28;20054;-77
2022/06/16 04:43:55;;;;;;;7.25;3.70;;;;;;;15.22;72.23;100915.13;4954531;28;20055;-76
2022/06/16 04:46:24;;;;;;;6.18;3.85;;;;;;;15.28;72.18;100927.09;4953997;28;20051;-75
2022/06/16 04:48:52;;;;;;;4.63;3.08;;;;;;;15.32;72.36;100925.91;4956291;28;20081;-76
2022/06/16 04:51:30;;;;;;;13.18;4.20;;;;;;;15.36;71.90;100927.38;4968544;28;20050;-77
2022/06/16 04:54:01;;;;;;;6.75;3.70;;;;;;;15.37;71.70;100926.41;4951705;28;20043;-78
2022/06/16 04:56:28;;;;;;;10.18;3.85;;;;;;;15.37;71.58;100929.06;4971573;28;20047;-80
2022/06/16 04:58:55;;;;;;;9.77;3.70;;;;;;;15.40;71.40;100926.16;4942553;28;20054;-78
2022/06/16 05:01:22;;;;;;;9.50;3.70;;;;;;;15.43;71.12;100929.44;4954659;28;20097;-78
2022/06/16 05:03:51;;;;;;;11.95;4.95;;;;;;;15.46;71.46;100925.72;4955868;28;20061;-79
2022/06/16 05:06:19;;;;;;;5.65;3.08;;;;;;;15.60;71.08;100930.00;4953800;28;20571;-78
2022/06/16 05:08:48;;;;;;;5.32;2.92;;;;;;;15.73;70.55;100930.81;4972780;28;20130;-78
2022/06/16 05:11:15;;;;;;;9.20;3.38;;;;;;;15.88;69.66;100928.78;4954157;28;20066;-78
2022/06/16 05:13:42;;;;;;;5.60;3.20;;;;;;;16.00;69.39;100934.97;4941060;28;20058;-78
2022/06/16 05:16:10;;;;;;;5.72;3.53;;;;;;;16.03;68.91;100937.38;4936460;28;20430;-78
2022/06/16 05:18:37;;;;;;;9.80;4.18;;;;;;;16.10;68.76;100938.59;4950327;28;20070;-78
2022/06/16 05:21:05;;;;;;;11.30;4.13;;;;;;;16.19;68.60;100937.88;4965235;28;20049;-78
2022/06/16 05:23:32;;;;;;;5.93;3.75;;;;;;;16.27;67.91;100939.97;4955149;28;20065;-78
2022/06/16 05:26:00;;;;;;;9.68;3.47;;;;;;;16.37;67.48;100941.78;4974694;28;20118;-78
2022/06/16 05:28:27;;;;;;;11.48;3.45;;;;;;;16.48;67.20;100948.91;4981422;28;20042;-79
2022/06/16 05:30:55;;;;;;;10.38;4.45;;;;;;;16.56;66.81;100954.44;4958883;28;20139;-81
2022/06/16 05:33:23;;;;;;;6.88;3.40;;;;;;;16.64;66.47;100953.84;4967506;28;20065;-79
2022/06/16 05:36:05;;;;;;;6.72;3.28;;;;;;;16.76;65.73;100944.09;4965087;28;20123;-79
2022/06/16 05:38:33;;;;;;;8.75;3.35;;;;;;;16.90;65.25;100944.69;4940180;28;20043;-79
2022/06/16 05:41:10;;;;;;;9.65;3.13;;;;;;;17.02;64.57;100940.22;4969360;28;20158;-81
2022/06/16 05:43:37;;;;;;;11.50;3.20;;;;;;;17.18;63.67;100947.78;4956891;28;20062;-80
2022/06/16 05:46:06;;;;;;;11.00;3.10;;;;;;;17.32;63.33;100950.13;4953399;28;20450;-79
2022/06/16 05:48:41;;;;;;;7.53;3.60;;;;;;;17.36;63.15;100950.75;4968402;28;20397;-79
2022/06/16 05:51:10;;;;;;;8.80;3.20;;;;;;;17.46;63.18;100947.19;4955891;28;20514;-79
2022/06/16 05:53:38;;;;;;;8.77;3.55;;;;;;;17.51;62.74;100960.09;4961572;28;20126;-80
2022/06/16 05:56:12;;;;;;;7.93;3.28;;;;;;;17.47;62.71;100950.69;4972125;28;20054;-78
2022/06/16 05:58:41;;;;;;;6.72;3.28;;;;;;;17.41;63.30;100945.88;4936481;28;20046;-79
2022/06/16 06:01:10;;;;;;;8.25;2.83;;;;;;;17.39;62.87;100946.00;4966189;28;20527;-80
2022/06/16 06:03:38;;;;;;;9.40;2.97;;;;;;;17.40;63.04;100950.38;4938287;28;20053;-79
2022/06/16 06:06:06;;;;;;;9.27;3.00;;;;;;;17.51;62.91;100949.47;4948977;28;20066;-79
2022/06/16 06:17:10;;;;;;;14.00;3.08;;;;;;;18.14;60.91;100965.50;4968400;28;20063;-79
2022/06/16 06:19:38;;;;;;;6.35;2.55;;;;;;;18.29;60.30;100955.38;4956548;28;20062;-80
2022/06/16 06:22:11;;;;;;;17.73;3.97;;;;;;;18.50;60.12;100963.31;4924417;28;20149;-80
2022/06/16 06:24:45;;;;;;;9.45;2.88;;;;;;;18.68;58.79;100959.88;4972385;28;20069;-80
2022/06/16 06:27:21;;;;;;;13.73;4.25;;;;;;;18.83;58.43;100959.56;4969027;28;20065;-79
2022/06/16 06:29:49;;;;;;;10.38;4.30;;;;;;;19.08;57.97;100968.91;4964763;28;20049;-80
2022/06/16 06:32:19;;;;;;;9.13;3.83;;;;;;;19.26;57.72;100964.56;4928535;28;20408;-80
2022/06/16 06:34:46;;;;;;;7.53;2.90;;;;;;;19.48;57.27;100976.81;4969124;28;20127;-80
2022/06/16 06:37:16;;;;;;;21.52;4.18;;;;;;;19.63;56.59;100985.28;4974493;28;20074;-79
2022/06/16 06:39:43;;;;;;;9.75;3.28;;;;;;;19.82;55.93;100995.16;4960551;28;20057;-78
2022/06/16 06:42:11;;;;;;;8.68;3.20;;;;;;;19.94;55.23;100994.84;4929327;28;20054;-79
2022/06/16 06:44:41;;;;;;;7.63;2.85;;;;;;;19.86;54.98;101001.91;4976670;28;20057;-79
2022/06/16 06:47:16;;;;;;;4.30;2.55;;;;;;;19.81;55.10;100996.13;4977449;28;20560;-80
2022/06/16 06:49:43;;;;;;;7.88;2.88;;;;;;;19.75;55.26;100989.53;4964730;28;20061;-78
2022/06/16 06:52:11;;;;;;;7.65;2.97;;;;;;;19.67;55.45;100998.22;4949581;28;20055;-79
2022/06/16 06:54:42;;;;;;;11.80;3.05;;;;;;;19.68;55.73;100991.94;4978506;28;20093;-78
2022/06/16 06:57:12;;;;;;;7.68;2.97;;;;;;;19.78;55.41;100991.09;4934575;28;20065;-77
2022/06/16 06:59:39;;;;;;;8.02;2.92;;;;;;;19.95;54.87;100991.22;4952036;28;20138;-79
2022/06/16 07:02:10;;;;;;;10.93;2.78;;;;;;;20.19;54.17;100984.56;4953571;28;20712;-79
2022/06/16 07:04:39;;;;;;;5.10;2.30;;;;;;;20.38;53.61;100981.81;4937935;28;20217;-80
2022/06/16 07:07:09;;;;;;;8.13;2.95;;;;;;;20.60;52.96;100991.38;4955430;28;20054;-80
2022/06/16 07:09:36;;;;;;;17.02;3.03;;;;;;;20.95;52.20;100996.00;4933715;28;20486;-79
2022/06/16 07:12:13;;;;;;;10.05;2.78;;;;;;;21.23;51.52;100998.66;4953832;28;20055;-80
2022/06/16 07:14:43;;;;;;;14.77;3.85;;;;;;;21.39;50.61;100998.03;4955435;28;20157;-79
2022/06/16 07:17:10;;;;;;;14.80;4.70;;;;;;;21.62;49.98;100998.44;4960925;28;20054;-79
2022/06/16 07:19:38;;;;;;;11.57;3.53;;;;;;;21.81;49.84;101005.47;4950049;28;20049;-79
2022/06/16 07:22:06;;;;;;;10.27;4.55;;;;;;;21.87;49.14;101004.84;4965505;28;20046;-78
2022/06/16 07:24:35;;;;;;;10.68;5.05;;;;;;;21.98;48.68;101012.66;4938499;28;20058;-80
2022/06/16 07:27:03;;;;;;;7.22;3.20;;;;;;;22.02;48.75;101015.84;4956502;28;20127;-80
2022/06/16 07:29:30;;;;;;;15.70;5.80;;;;;;;22.06;48.24;101023.44;4948719;28;20051;-80
2022/06/16 07:32:05;;;;;;;11.40;5.25;;;;;;;22.17;48.13;101025.91;4953342;28;20560;-79
2022/06/16 07:34:33;;;;;;;12.07;3.28;;;;;;;22.10;47.62;101037.38;4955838;28;20402;-79
2022/06/16 07:37:00;;;;;;;7.47;2.65;;;;;;;22.12;47.29;101033.59;4962021;28;20042;-79
2022/06/16 07:39:28;;;;;;;6.32;2.72;;;;;;;22.28;47.24;101032.00;4970192;28;20039;-79
2022/06/16 07:41:55;;;;;;;5.80;2.47;;;;;;;22.39;47.24;101035.28;4940137;28;20050;-78
2022/06/16 07:44:22;;;;;;;10.50;3.22;;;;;;;22.49;47.26;101040.56;4961982;28;20569;-78
2022/06/16 07:46:50;;;;;;;8.95;2.85;;;;;;;22.71;45.98;101056.13;4948898;28;20050;-79
2022/06/16 07:49:22;;;;;;;6.45;2.50;;;;;;;22.81;46.11;101055.16;4969727;28;20069;-78
2022/06/16 07:51:50;;;;;;;5.10;2.13;;;;;;;22.78;46.06;101048.25;4945884;28;20058;-78
2022/06/16 07:54:18;;;;;;;4.72;2.20;;;;;;;22.68;45.89;101034.97;4943320;28;20123;-78
2022/06/16 07:57:05;;;;;;;6.13;2.17;;;;;;;22.55;46.06;101021.13;4951440;28;20070;-78
2022/06/16 07:59:32;;;;;;;7.35;4.22;;;;;;;22.63;45.74;101018.50;4938251;28;20053;-79
2022/06/16 08:02:00;;;;;;;22.35;7.55;;;;;;;22.74;45.56;101006.66;4963902;28;20046;-79
2022/06/16 08:04:27;;;;;;;60.75;33.00;;;;;;;22.86;45.79;101016.09;4952458;28;20058;-79
2022/06/16 08:07:00;;;;;;;61.40;33.95;;;;;;;22.88;45.54;101018.66;4949766;28;20061;-81
2022/06/16 08:09:31;;;;;;;29.50;17.60;;;;;;;22.74;45.14;101022.78;4970084;28;20042;-84
2022/06/16 08:12:08;;;;;;;13.35;6.75;;;;;;;22.65;45.63;101021.88;4936827;28;20047;-80
2022/06/16 08:14:40;;;;;;;5.47;2.88;;;;;;;22.65;45.06;101032.63;4957681;28;20046;-81
2022/06/16 08:17:10;;;;;;;11.75;3.60;;;;;;;22.70;45.07;101026.78;4968871;28;20137;-81
2022/06/16 08:19:37;;;;;;;7.78;2.60;;;;;;;22.87;44.82;101030.34;4953238;28;20791;-81
2022/06/16 08:22:05;;;;;;;16.10;3.78;;;;;;;22.99;44.31;101027.25;4938805;28;20039;-81
2022/06/16 08:24:32;;;;;;;8.20;3.47;;;;;;;23.16;44.11;101036.22;4941950;28;20046;-82
2022/06/16 08:27:01;;;;;;;4.88;2.67;;;;;;;23.30;43.82;101034.78;4933082;28;20048;-78
2022/06/16 08:29:29;;;;;;;5.65;2.67;;;;;;;23.59;43.43;101033.47;4939185;28;20066;-81
2022/06/16 08:31:57;;;;;;;5.28;2.90;;;;;;;23.65;43.43;101035.56;4963436;28;20086;-79
2022/06/16 08:34:25;;;;;;;8.52;2.83;;;;;;;23.77;42.68;101052.19;4947548;28;20050;-78
2022/06/16 08:36:52;;;;;;;8.18;3.17;;;;;;;23.80;42.90;101044.66;4945170;28;20051;-80
2022/06/16 08:39:19;;;;;;;8.95;2.80;;;;;;;23.98;42.25;101049.88;4959481;28;20050;-79
2022/06/16 08:42:11;;;;;;;6.93;2.47;;;;;;;24.09;42.47;101049.56;4953382;28;20055;-80
2022/06/16 08:44:41;;;;;;;6.50;2.55;;;;;;;24.24;41.77;101052.41;4930248;28;20289;-78
2022/06/16 08:47:21;;;;;;;10.68;2.50;;;;;;;24.32;41.33;101055.09;4946044;28;20051;-77
2022/06/16 08:50:30;;;;;;;5.60;2.38;;;;;;;24.27;41.42;101060.13;4957182;28;20053;-78
2022/06/16 08:53:16;;;;;;;8.40;2.78;;;;;;;24.26;40.95;101053.06;4921030;29;20048;-80
2022/06/16 08:56:01;;;;;;;8.43;2.30;;;;;;;24.41;40.93;101058.66;4920459;29;20072;-80
2022/06/16 08:59:07;;;;;;;7.28;2.75;;;;;;;24.55;40.43;101067.88;4945076;28;20067;-78
2022/06/16 09:01:36;;;;;;;7.85;3.05;;;;;;;24.73;40.19;101076.59;4956183;28;20050;-78
2022/06/16 09:04:09;;;;;;;4.32;2.40;;;;;;;24.93;39.77;101074.34;4955732;28;20114;-78
2022/06/16 09:06:48;;;;;;;5.68;2.35;;;;;;;25.19;39.36;101076.81;4975230;28;20118;-81
2022/06/16 09:12:30;;;;;;;9.70;2.28;;;;;;;25.62;37.85;101083.50;4975799;28;20074;-79
2022/06/16 09:15:14;;;;;;;5.13;2.35;;;;;;;25.69;38.00;101089.84;4944164;28;20127;-79
2022/06/16 09:18:04;;;;;;;12.07;2.58;;;;;;;25.81;37.72;101084.94;4955201;28;20047;-81
2022/06/16 09:20:55;;;;;;;5.25;1.98;;;;;;;26.03;37.89;101080.56;4974837;28;20047;-81
2022/06/16 09:23:31;;;;;;;6.15;2.72;;;;;;;26.29;36.91;101084.72;4958859;28;20110;-77
2022/06/16 09:26:19;;;;;;;8.73;2.50;;;;;;;26.55;36.29;101087.88;4954077;28;20049;-77
2022/06/16 09:29:19;;;;;;;6.93;2.47;;;;;;;26.66;36.55;101082.06;4934055;28;20042;-78
2022/06/16 09:31:59;;;;;;;5.22;2.28;;;;;;;26.57;36.34;101085.00;4960003;28;20073;-79
2022/06/16 09:34:51;;;;;;;10.65;2.08;;;;;;;26.46;35.75;101089.00;4942933;28;20062;-79
2022/06/16 09:37:26;;;;;;;5.80;2.35;;;;;;;26.47;35.87;101088.78;4923624;28;20054;-79
2022/06/16 09:40:02;;;;;;;7.80;2.33;;;;;;;26.50;35.77;101088.44;4967703;28;20070;-79
2022/06/16 09:42:56;;;;;;;11.38;2.85;;;;;;;26.57;35.87;101087.69;4975225;28;20074;-80
2022/06/16 09:45:27;;;;;;;7.63;2.78;;;;;;;26.56;35.30;101092.25;4947859;28;20141;-81
2022/06/16 09:48:13;;;;;;;4.55;1.70;;;;;;;26.50;35.24;101093.84;4964477;28;20039;-80
2022/06/16 09:50:46;;;;;;;7.50;1.90;;;;;;;26.69;35.05;101097.88;4966777;28;20039;-79
2022/06/16 09:53:30;;;;;;;5.50;2.35;;;;;;;26.50;35.68;101095.72;4955267;28;20057;-76
2022/06/16 09:56:14;;;;;;;4.90;2.00;;;;;;;26.43;35.98;101095.63;4956991;28;20073;-80
2022/06/16 09:58:54;;;;;;;6.13;2.22;;;;;;;26.59;35.36;101097.31;4980054;28;20050;-82
2022/06/16 10:01:24;;;;;;;7.88;2.25;;;;;;;26.56;35.97;101107.63;4949073;28;20061;-80
2022/06/16 10:04:05;;;;;;;8.32;1.85;;;;;;;26.45;35.55;101106.22;4955042;28;20062;-78
2022/06/16 10:06:38;;;;;;;11.57;2.10;;;;;;;26.56;35.75;101107.63;4929449;28;20035;-80
2022/06/16 10:09:28;;;;;;;5.68;1.98;;;;;;;26.73;35.30;101101.03;4948847;28;20042;-80
2022/06/16 10:11:55;;;;;;;4.55;2.00;;;;;;;26.91;34.57;101103.38;4971729;28;20046;-81
2022/06/16 10:14:47;;;;;;;8.65;2.40;;;;;;;26.78;34.17;101106.72;4962265;28;20482;-82
2022/06/16 10:17:21;;;;;;;8.23;2.28;;;;;;;26.70;33.88;101118.47;4946935;28;20295;-81
2022/06/16 10:19:49;;;;;;;10.75;2.20;;;;;;;26.61;34.28;101106.03;4977291;28;20058;-80
2022/06/16 10:22:19;;;;;;;10.48;1.90;;;;;;;26.93;34.24;101102.19;4973951;28;20078;-79
2022/06/16 10:25:03;;;;;;;8.38;2.13;;;;;;;27.35;33.65;101111.53;4940448;28;20057;-79
2022/06/16 10:27:40;;;;;;;3.72;2.05;;;;;;;27.68;33.09;101113.78;4954304;28;20054;-79
2022/06/16 10:30:08;;;;;;;4.47;1.90;;;;;;;27.93;32.77;101112.44;4956786;28;20054;-78
2022/06/16 10:32:42;;;;;;;7.70;2.00;;;;;;;28.23;32.12;101106.88;4945085;28;20054;-79
2022/06/16 10:35:18;;;;;;;8.23;2.35;;;;;;;28.29;31.85;101116.94;4971207;28;20055;-79
2022/06/16 10:37:48;;;;;;;4.85;1.98;;;;;;;28.23;31.89;101099.63;4956700;28;20062;-79
2022/06/16 10:40:24;;;;;;;3.90;2.28;;;;;;;27.98;31.25;101104.56;4943884;28;20051;-78
2022/06/16 10:42:55;;;;;;;10.93;2.78;;;;;;;27.92;31.45;101120.72;4958856;28;20120;-78
2022/06/16 10:45:33;;;;;;;8.23;2.20;;;;;;;27.88;31.58;101124.88;4942597;28;20054;-78
2022/06/16 10:48:06;;;;;;;13.43;2.40;;;;;;;28.01;31.64;101125.00;4981366;28;20137;-80
2022/06/16 10:50:39;;;;;;;7.78;3.38;;;;;;;27.90;31.99;101128.22;4941635;28;20047;-78
2022/06/16 10:53:26;;;;;;;10.27;2.60;;;;;;;28.04;31.66;101127.31;4972995;28;20091;-78
2022/06/16 10:56:01;;;;;;;15.90;2.40;;;;;;;27.75;31.59;101126.38;4979552;28;20050;-77
2022/06/16 10:58:33;;;;;;;12.05;2.38;;;;;;;27.37;31.86;101141.91;4980475;28;20118;-77
2022/06/16 11:01:05;;;;;;;6.63;2.00;;;;;;;27.64;32.12;101134.94;4977574;28;20055;-77
2022/06/16 11:03:41;;;;;;;5.35;1.90;;;;;;;27.81;31.89;101142.88;4974935;28;20091;-78
2022/06/16 11:06:14;;;;;;;7.07;1.90;;;;;;;28.27;31.45;101130.66;4974528;28;20042;-79
2022/06/16 11:08:46;;;;;;;6.13;1.90;;;;;;;28.25;30.77;101142.72;4977005;28;20414;-77
2022/06/16 11:11:19;;;;;;;5.80;1.85;;;;;;;28.37;30.93;101148.47;4963602;28;20066;-76
2022/06/16 11:13:53;;;;;;;5.03;2.13;;;;;;;28.33;29.82;101152.59;4989934;28;20043;-77
2022/06/16 11:16:31;;;;;;;8.13;1.75;;;;;;;27.77;30.22;101159.50;4983860;28;20114;-77
2022/06/16 11:19:01;;;;;;;7.75;2.00;;;;;;;27.25;31.28;101155.06;4966164;28;20555;-78
2022/06/16 11:21:30;;;;;;;5.28;2.20;;;;;;;27.36;31.33;101155.59;4962320;28;20053;-78
2022/06/16 11:24:00;;;;;;;4.68;2.00;;;;;;;27.21;32.16;101152.91;4979163;28;20054;-78
2022/06/16 11:26:34;;;;;;;10.93;2.47;;;;;;;27.13;32.31;101153.84;4954527;28;20131;-77
2022/06/16 11:29:11;;;;;;;8.30;2.75;;;;;;;26.89;33.00;101154.91;4958952;28;20733;-76
2022/06/16 11:31:48;;;;;;;7.88;2.20;;;;;;;26.75;33.16;101156.56;4954871;28;20050;-77
2022/06/16 11:34:30;;;;;;;4.18;1.90;;;;;;;26.67;33.16;101156.66;4936697;28;20074;-77
2022/06/16 11:37:12;;;;;;;15.55;2.45;;;;;;;26.67;34.12;101162.06;4951647;28;20073;-77
2022/06/16 11:40:07;;;;;;;6.95;2.08;;;;;;;26.99;33.43;101157.34;4957727;28;20053;-78
2022/06/16 11:42:55;;;;;;;7.03;1.63;;;;;;;27.21;33.51;101156.47;4959351;28;20039;-78
2022/06/16 11:45:53;;;;;;;4.95;1.90;;;;;;;27.45;33.08;101163.44;4974448;28;20386;-79
2022/06/16 11:48:38;;;;;;;8.23;2.20;;;;;;;27.74;32.54;101162.59;4957138;28;20059;-81
2022/06/16 11:51:05;;;;;;;;;;;;;;;27.85;32.43;101163.13;4961321;28;20053;-79
2022/06/16 11:54:05;;;;;;;5.13;2.28;;;;;;;28.09;31.70;101160.06;4962949;28;20025;-79
2022/06/16 11:56:42;;;;;;;10.27;2.03;;;;;;;27.96;31.88;101154.50;4945425;28;20065;-78
2022/06/16 11:59:24;;;;;;;5.50;2.08;;;;;;;28.01;31.64;101157.50;4962095;28;20038;-80
2022/06/16 12:01:57;;;;;;;7.03;1.85;;;;;;;28.23;31.64;101156.47;4961826;28;20039;-79
2022/06/16 12:05:05;;;;;;;16.48;2.50;;;;;;;28.11;31.23;101151.75;4945974;28;20052;-77
2022/06/16 12:07:56;;;;;;;4.35;2.30;;;;;;;28.09;31.65;101154.63;4945085;28;20042;-77
2022/06/16 12:10:37;;;;;;;5.15;1.60;;;;;;;28.33;31.32;101156.16;4970156;28;20050;-78
2022/06/16 12:13:33;;;;;;;4.40;1.85;;;;;;;28.58;30.96;101144.91;4950192;28;20138;-79